AZU2411 SBIL-SBKP
Flight info
| Callsign | AZU2411 |
|---|---|
| Flight time | 1h 58m |
| Altitude | 36000 |
| Route | DENDE DCT OBDUV DCT MIMIP UZ30 ENTIT |
| Aircraft | A320/M-SDE3FGHIRWY/LB1 |
Departure
| Time | 2026-05-03 23:11 |
|---|---|
| Airport | Bahia - Jorge Amado Airport (SBIL) |
Arrival
| Time | 2026-05-04 01:09 |
|---|---|
| Airport | Viracopos International Airport (SBKP) |
| Time | Latitude | Longitude | Altitude | Speed | Heading |
|---|---|---|---|---|---|
| 2026-05-03 22:54 | -14.81451 | -39.03180 | 16 ft | 0 kts | 0° |
| 2026-05-03 23:02 | -14.81464 | -39.03180 | 15 ft | 4 kts | 343° |
| 2026-05-03 23:03 | -14.81479 | -39.03166 | 17 ft | 4 kts | 278° |
| 2026-05-03 23:03 | -14.81480 | -39.03154 | 16 ft | 1 kts | 269° |
| 2026-05-03 23:07 | -14.81480 | -39.03157 | 16 ft | 3 kts | 268° |
| 2026-05-03 23:08 | -14.81481 | -39.03179 | 15 ft | 2 kts | 268° |
| 2026-05-03 23:08 | -14.81482 | -39.03217 | 15 ft | 6 kts | 266° |
| 2026-05-03 23:08 | -14.81513 | -39.03247 | 15 ft | 10 kts | 179° |
| 2026-05-03 23:08 | -14.81584 | -39.03265 | 13 ft | 13 kts | 233° |
| 2026-05-03 23:09 | -14.81594 | -39.03391 | 18 ft | 20 kts | 269° |
| 2026-05-03 23:09 | -14.81597 | -39.03531 | 18 ft | 19 kts | 268° |
| 2026-05-03 23:09 | -14.81601 | -39.03666 | 18 ft | 19 kts | 268° |
| 2026-05-03 23:09 | -14.81605 | -39.03801 | 19 ft | 19 kts | 268° |
| 2026-05-03 23:10 | -14.81604 | -39.03935 | 20 ft | 18 kts | 277° |
| 2026-05-03 23:10 | -14.81609 | -39.04034 | 19 ft | 3 kts | 182° |
| 2026-05-03 23:10 | -14.81608 | -39.04023 | 19 ft | 0 kts | 88° |
| 2026-05-03 23:10 | -14.81609 | -39.04005 | 20 ft | 17 kts | 90° |
| 2026-05-03 23:11 | -14.81598 | -39.03580 | 19 ft | 99 kts | 88° |
| 2026-05-03 23:11 | -14.81582 | -39.02640 | 128 ft | 152 kts | 92° |
| 2026-05-03 23:11 | -14.81541 | -39.01500 | 766 ft | 161 kts | 88° |
| 2026-05-03 23:11 | -14.81690 | -39.00382 | 1496 ft | 158 kts | 116° |
| 2026-05-03 23:12 | -14.82460 | -38.99509 | 1779 ft | 179 kts | 153° |
| 2026-05-03 23:12 | -14.83757 | -38.99378 | 2024 ft | 206 kts | 195° |
| 2026-05-03 23:12 | -14.85008 | -39.00260 | 2303 ft | 233 kts | 221° |
| 2026-05-03 23:12 | -14.86176 | -39.01545 | 2637 ft | 258 kts | 225° |
| 2026-05-03 23:13 | -14.87356 | -39.02987 | 3347 ft | 264 kts | 227° |
| 2026-05-03 23:13 | -14.88534 | -39.04459 | 4162 ft | 267 kts | 226° |
| 2026-05-03 23:13 | -14.89730 | -39.05944 | 4982 ft | 270 kts | 226° |
| 2026-05-03 23:13 | -14.90952 | -39.07437 | 5731 ft | 274 kts | 226° |
| 2026-05-03 23:14 | -14.92196 | -39.08938 | 6520 ft | 276 kts | 226° |
| 2026-05-03 23:14 | -14.93464 | -39.10452 | 7228 ft | 280 kts | 226° |
| 2026-05-03 23:14 | -14.94755 | -39.11983 | 7919 ft | 285 kts | 226° |
| 2026-05-03 23:14 | -14.96053 | -39.13515 | 8603 ft | 289 kts | 227° |
| 2026-05-03 23:15 | -14.97387 | -39.15091 | 9289 ft | 294 kts | 227° |
| 2026-05-03 23:15 | -14.98741 | -39.16693 | 9975 ft | 298 kts | 228° |
| 2026-05-03 23:15 | -15.00137 | -39.18339 | 10334 ft | 314 kts | 227° |
| 2026-05-03 23:15 | -15.01202 | -39.19594 | 10443 ft | 330 kts | 227° |
| 2026-05-03 23:16 | -15.02762 | -39.21430 | 10696 ft | 347 kts | 227° |
| 2026-05-03 23:16 | -15.04365 | -39.23324 | 11229 ft | 352 kts | 227° |
| 2026-05-03 23:16 | -15.05988 | -39.25243 | 11812 ft | 356 kts | 227° |
| 2026-05-03 23:16 | -15.07628 | -39.27186 | 12379 ft | 361 kts | 227° |
| 2026-05-03 23:17 | -15.09286 | -39.29152 | 12923 ft | 365 kts | 227° |
| 2026-05-03 23:17 | -15.10968 | -39.31141 | 13469 ft | 369 kts | 227° |
| 2026-05-03 23:17 | -15.12665 | -39.33146 | 13979 ft | 373 kts | 227° |
| 2026-05-03 23:17 | -15.14382 | -39.35176 | 14445 ft | 376 kts | 227° |
| 2026-05-03 23:18 | -15.16104 | -39.37220 | 14935 ft | 378 kts | 227° |
| 2026-05-03 23:18 | -15.17833 | -39.39272 | 15430 ft | 380 kts | 227° |
| 2026-05-03 23:18 | -15.19578 | -39.41340 | 15934 ft | 382 kts | 227° |
| 2026-05-03 23:18 | -15.21329 | -39.43414 | 16429 ft | 384 kts | 227° |
| 2026-05-03 23:19 | -15.23091 | -39.45502 | 16925 ft | 386 kts | 227° |
| 2026-05-03 23:19 | -15.24861 | -39.47597 | 17410 ft | 388 kts | 227° |
| 2026-05-03 23:19 | -15.26640 | -39.49703 | 17898 ft | 390 kts | 227° |
| 2026-05-03 23:19 | -15.28424 | -39.51823 | 18384 ft | 392 kts | 229° |
| 2026-05-03 23:20 | -15.30010 | -39.54084 | 18775 ft | 394 kts | 234° |
| 2026-05-03 23:20 | -15.31568 | -39.56431 | 19180 ft | 396 kts | 234° |
| 2026-05-03 23:20 | -15.33136 | -39.58785 | 19572 ft | 399 kts | 234° |
| 2026-05-03 23:20 | -15.34720 | -39.61155 | 19957 ft | 400 kts | 234° |
| 2026-05-03 23:21 | -15.36308 | -39.63535 | 20360 ft | 402 kts | 235° |
| 2026-05-03 23:21 | -15.37902 | -39.65923 | 20747 ft | 404 kts | 234° |
| 2026-05-03 23:21 | -15.39508 | -39.68327 | 21123 ft | 406 kts | 235° |
| 2026-05-03 23:21 | -15.41115 | -39.70739 | 21502 ft | 408 kts | 235° |
| 2026-05-03 23:22 | -15.44352 | -39.75605 | 22275 ft | 412 kts | 235° |
| 2026-05-03 23:22 | -15.45979 | -39.78048 | 22634 ft | 414 kts | 235° |
| 2026-05-03 23:22 | -15.47618 | -39.80511 | 23017 ft | 415 kts | 236° |
| 2026-05-03 23:23 | -15.49258 | -39.82974 | 23401 ft | 416 kts | 236° |
| 2026-05-03 23:23 | -15.50905 | -39.85452 | 23736 ft | 418 kts | 236° |
| 2026-05-03 23:23 | -15.52564 | -39.87944 | 24010 ft | 421 kts | 236° |
| 2026-05-03 23:23 | -15.54228 | -39.90443 | 24316 ft | 422 kts | 236° |
| 2026-05-03 23:24 | -15.55897 | -39.92952 | 24597 ft | 424 kts | 236° |
| 2026-05-03 23:24 | -15.57572 | -39.95471 | 24878 ft | 426 kts | 236° |
| 2026-05-03 23:24 | -15.59256 | -39.98010 | 25168 ft | 428 kts | 236° |
| 2026-05-03 23:24 | -15.60942 | -40.00558 | 25464 ft | 429 kts | 236° |
| 2026-05-03 23:25 | -15.62636 | -40.03113 | 25736 ft | 431 kts | 236° |
| 2026-05-03 23:25 | -15.64341 | -40.05680 | 26014 ft | 433 kts | 237° |
| 2026-05-03 23:25 | -15.66050 | -40.08250 | 26295 ft | 434 kts | 236° |
| 2026-05-03 23:25 | -15.67768 | -40.10839 | 26556 ft | 436 kts | 236° |
| 2026-05-03 23:26 | -15.69488 | -40.13436 | 26824 ft | 438 kts | 236° |
| 2026-05-03 23:26 | -15.71195 | -40.16008 | 27091 ft | 439 kts | 236° |
| 2026-05-03 23:26 | -15.72929 | -40.18630 | 27360 ft | 441 kts | 237° |
| 2026-05-03 23:26 | -15.74664 | -40.21259 | 27626 ft | 443 kts | 237° |
| 2026-05-03 23:27 | -15.76414 | -40.23902 | 27893 ft | 444 kts | 237° |
| 2026-05-03 23:27 | -15.78168 | -40.26552 | 28159 ft | 446 kts | 237° |
| 2026-05-03 23:27 | -15.79926 | -40.29209 | 28424 ft | 448 kts | 237° |
| 2026-05-03 23:27 | -15.81693 | -40.31880 | 28681 ft | 449 kts | 237° |
| 2026-05-03 23:28 | -15.83461 | -40.34557 | 28923 ft | 451 kts | 237° |
| 2026-05-03 23:28 | -15.85240 | -40.37254 | 29166 ft | 453 kts | 237° |
| 2026-05-03 23:28 | -15.87024 | -40.39951 | 29395 ft | 454 kts | 237° |
| 2026-05-03 23:28 | -15.88819 | -40.42663 | 29645 ft | 456 kts | 237° |
| 2026-05-03 23:29 | -15.90615 | -40.45379 | 29887 ft | 457 kts | 237° |
| 2026-05-03 23:29 | -15.92413 | -40.48107 | 30100 ft | 459 kts | 237° |
| 2026-05-03 23:29 | -15.94217 | -40.50847 | 30304 ft | 460 kts | 237° |
| 2026-05-03 23:29 | -15.96028 | -40.53589 | 30507 ft | 461 kts | 237° |
| 2026-05-03 23:30 | -15.97841 | -40.56337 | 30734 ft | 461 kts | 237° |
| 2026-05-03 23:30 | -15.99647 | -40.59080 | 31046 ft | 459 kts | 237° |
| 2026-05-03 23:30 | -16.01446 | -40.61812 | 31371 ft | 457 kts | 237° |
| 2026-05-03 23:30 | -16.03238 | -40.64537 | 31685 ft | 455 kts | 237° |
| 2026-05-03 23:31 | -16.05018 | -40.67247 | 32006 ft | 453 kts | 237° |
| 2026-05-03 23:31 | -16.06792 | -40.69948 | 32312 ft | 451 kts | 237° |
| 2026-05-03 23:31 | -16.08556 | -40.72633 | 32648 ft | 449 kts | 237° |
| 2026-05-03 23:31 | -16.10316 | -40.75312 | 32983 ft | 447 kts | 237° |
| 2026-05-03 23:32 | -16.12065 | -40.77977 | 33318 ft | 445 kts | 237° |
| 2026-05-03 23:32 | -16.13804 | -40.80621 | 33640 ft | 443 kts | 237° |
| 2026-05-03 23:32 | -16.15543 | -40.83264 | 33940 ft | 441 kts | 237° |
| 2026-05-03 23:32 | -16.17268 | -40.85889 | 34240 ft | 440 kts | 237° |
| 2026-05-03 23:33 | -16.18990 | -40.88514 | 34507 ft | 438 kts | 237° |
| 2026-05-03 23:33 | -16.20705 | -40.91133 | 34760 ft | 437 kts | 237° |
| 2026-05-03 23:33 | -16.22414 | -40.93738 | 34999 ft | 436 kts | 237° |
| 2026-05-03 23:33 | -16.24099 | -40.96309 | 35226 ft | 435 kts | 237° |
| 2026-05-03 23:34 | -16.25800 | -40.98908 | 35436 ft | 434 kts | 237° |
| 2026-05-03 23:34 | -16.27500 | -41.01500 | 35671 ft | 433 kts | 237° |
| 2026-05-03 23:34 | -16.29194 | -41.04083 | 35917 ft | 431 kts | 237° |
| 2026-05-03 23:34 | -16.30884 | -41.06663 | 36074 ft | 431 kts | 237° |
| 2026-05-03 23:35 | -16.34243 | -41.11798 | 36125 ft | 428 kts | 237° |
| 2026-05-03 23:35 | -16.37590 | -41.16919 | 36127 ft | 427 kts | 238° |
| 2026-05-03 23:36 | -16.40926 | -41.22038 | 36124 ft | 427 kts | 238° |
| 2026-05-03 23:36 | -16.44269 | -41.27159 | 36125 ft | 427 kts | 238° |
| 2026-05-03 23:37 | -16.47607 | -41.32279 | 36132 ft | 427 kts | 238° |
| 2026-05-03 23:37 | -16.50942 | -41.37398 | 36132 ft | 427 kts | 238° |
| 2026-05-03 23:38 | -16.54272 | -41.42512 | 36131 ft | 426 kts | 238° |
| 2026-05-03 23:38 | -16.57607 | -41.47627 | 36128 ft | 426 kts | 238° |
| 2026-05-03 23:39 | -16.60934 | -41.52744 | 36135 ft | 426 kts | 238° |
| 2026-05-03 23:39 | -16.63703 | -41.56999 | 36133 ft | 427 kts | 238° |
| 2026-05-03 23:40 | -16.67035 | -41.62120 | 36138 ft | 427 kts | 238° |
| 2026-05-03 23:40 | -16.70353 | -41.67247 | 36139 ft | 426 kts | 238° |
| 2026-05-03 23:41 | -16.73665 | -41.72368 | 36133 ft | 426 kts | 238° |
| 2026-05-03 23:41 | -16.76978 | -41.77483 | 36133 ft | 425 kts | 238° |
| 2026-05-03 23:42 | -16.80294 | -41.82593 | 36126 ft | 425 kts | 238° |
| 2026-05-03 23:42 | -16.83615 | -41.87703 | 36125 ft | 425 kts | 238° |
| 2026-05-03 23:43 | -16.86911 | -41.92786 | 36124 ft | 426 kts | 237° |
| 2026-05-03 23:43 | -16.90856 | -41.97414 | 36124 ft | 428 kts | 229° |
| 2026-05-03 23:44 | -16.94993 | -42.01889 | 36117 ft | 428 kts | 229° |
| 2026-05-03 23:44 | -16.99127 | -42.06370 | 36121 ft | 428 kts | 229° |
| 2026-05-03 23:45 | -17.03261 | -42.10849 | 36121 ft | 429 kts | 229° |
| 2026-05-03 23:45 | -17.07391 | -42.15342 | 36138 ft | 428 kts | 229° |
| 2026-05-03 23:46 | -17.11515 | -42.19837 | 36124 ft | 428 kts | 229° |
| 2026-05-03 23:46 | -17.15638 | -42.24320 | 36135 ft | 427 kts | 229° |
| 2026-05-03 23:47 | -17.19755 | -42.28792 | 36128 ft | 427 kts | 229° |
| 2026-05-03 23:47 | -17.23865 | -42.33273 | 36137 ft | 427 kts | 229° |
| 2026-05-03 23:48 | -17.27980 | -42.37757 | 36143 ft | 427 kts | 229° |
| 2026-05-03 23:48 | -17.32064 | -42.42204 | 36147 ft | 426 kts | 229° |
| 2026-05-03 23:49 | -17.36167 | -42.46681 | 36141 ft | 426 kts | 229° |
| 2026-05-03 23:49 | -17.40270 | -42.51158 | 36150 ft | 426 kts | 229° |
| 2026-05-03 23:50 | -17.44365 | -42.55636 | 36148 ft | 426 kts | 229° |
| 2026-05-03 23:50 | -17.48464 | -42.60113 | 36161 ft | 425 kts | 229° |
| 2026-05-03 23:51 | -17.52554 | -42.64592 | 36145 ft | 425 kts | 229° |
| 2026-05-03 23:51 | -17.56636 | -42.69072 | 36152 ft | 425 kts | 229° |
| 2026-05-03 23:52 | -17.60720 | -42.73546 | 36151 ft | 425 kts | 229° |
| 2026-05-03 23:52 | -17.64802 | -42.78023 | 36158 ft | 425 kts | 229° |
| 2026-05-03 23:53 | -17.68884 | -42.82505 | 36152 ft | 424 kts | 229° |
| 2026-05-03 23:53 | -17.72951 | -42.86983 | 36150 ft | 424 kts | 229° |
| 2026-05-03 23:54 | -17.77023 | -42.91459 | 36151 ft | 424 kts | 229° |
| 2026-05-03 23:54 | -17.81096 | -42.95931 | 36148 ft | 424 kts | 229° |
| 2026-05-03 23:55 | -17.85167 | -43.00408 | 36155 ft | 424 kts | 229° |
| 2026-05-03 23:55 | -17.89207 | -43.04853 | 36149 ft | 423 kts | 229° |
| 2026-05-03 23:56 | -17.93262 | -43.09330 | 36151 ft | 423 kts | 230° |
| 2026-05-03 23:56 | -17.97319 | -43.13807 | 36150 ft | 423 kts | 229° |
| 2026-05-03 23:57 | -18.01374 | -43.18280 | 36151 ft | 423 kts | 229° |
| 2026-05-03 23:57 | -18.05434 | -43.22759 | 36154 ft | 423 kts | 230° |
| 2026-05-03 23:58 | -18.09485 | -43.27249 | 36161 ft | 423 kts | 230° |
| 2026-05-03 23:58 | -18.13534 | -43.31731 | 36157 ft | 423 kts | 230° |
| 2026-05-03 23:59 | -18.17589 | -43.36213 | 36160 ft | 423 kts | 230° |
| 2026-05-03 23:59 | -18.21641 | -43.40693 | 36158 ft | 423 kts | 230° |
| 2026-05-04 00:00 | -18.25679 | -43.45176 | 36174 ft | 422 kts | 230° |
| 2026-05-04 00:00 | -18.29716 | -43.49650 | 36169 ft | 421 kts | 230° |
| 2026-05-04 00:01 | -18.33746 | -43.54121 | 36168 ft | 421 kts | 230° |
| 2026-05-04 00:01 | -18.37772 | -43.58597 | 36164 ft | 421 kts | 230° |
| 2026-05-04 00:02 | -18.41794 | -43.63067 | 36170 ft | 420 kts | 230° |
| 2026-05-04 00:02 | -18.45785 | -43.67509 | 36163 ft | 420 kts | 230° |
| 2026-05-04 00:03 | -18.49801 | -43.71980 | 36163 ft | 420 kts | 230° |
| 2026-05-04 00:03 | -18.53818 | -43.76456 | 36157 ft | 420 kts | 230° |
| 2026-05-04 00:04 | -18.57828 | -43.80929 | 36155 ft | 420 kts | 230° |
| 2026-05-04 00:04 | -18.61836 | -43.85399 | 36157 ft | 419 kts | 230° |
| 2026-05-04 00:05 | -18.65841 | -43.89862 | 36155 ft | 419 kts | 231° |
| 2026-05-04 00:05 | -18.69835 | -43.94329 | 36146 ft | 418 kts | 231° |
| 2026-05-04 00:06 | -18.73823 | -43.98785 | 36141 ft | 418 kts | 231° |
| 2026-05-04 00:06 | -18.77808 | -44.03247 | 36131 ft | 418 kts | 231° |
| 2026-05-04 00:07 | -18.81791 | -44.07713 | 36117 ft | 417 kts | 231° |
| 2026-05-04 00:07 | -18.85764 | -44.12173 | 36117 ft | 417 kts | 231° |
| 2026-05-04 00:08 | -18.89739 | -44.16632 | 36114 ft | 417 kts | 231° |
| 2026-05-04 00:08 | -18.93709 | -44.21087 | 36117 ft | 416 kts | 231° |
| 2026-05-04 00:09 | -18.97680 | -44.25543 | 36123 ft | 417 kts | 231° |
| 2026-05-04 00:09 | -19.01649 | -44.30007 | 36125 ft | 416 kts | 231° |
| 2026-05-04 00:10 | -19.05585 | -44.34430 | 36128 ft | 416 kts | 231° |
| 2026-05-04 00:10 | -19.09538 | -44.38882 | 36124 ft | 415 kts | 231° |
| 2026-05-04 00:11 | -19.13487 | -44.43331 | 36119 ft | 415 kts | 231° |
| 2026-05-04 00:11 | -19.17438 | -44.47783 | 36131 ft | 415 kts | 231° |
| 2026-05-04 00:12 | -19.21377 | -44.52232 | 36127 ft | 414 kts | 231° |
| 2026-05-04 00:12 | -19.25312 | -44.56678 | 36124 ft | 414 kts | 231° |
| 2026-05-04 00:13 | -19.29247 | -44.61117 | 36128 ft | 413 kts | 231° |
| 2026-05-04 00:13 | -19.33172 | -44.65563 | 36115 ft | 413 kts | 231° |
| 2026-05-04 00:14 | -19.37095 | -44.70013 | 36127 ft | 413 kts | 231° |
| 2026-05-04 00:14 | -19.41023 | -44.74457 | 36128 ft | 413 kts | 231° |
| 2026-05-04 00:15 | -19.44944 | -44.78897 | 36123 ft | 413 kts | 231° |
| 2026-05-04 00:15 | -19.48866 | -44.83343 | 36125 ft | 413 kts | 231° |
| 2026-05-04 00:16 | -19.52765 | -44.87751 | 36132 ft | 413 kts | 229° |
| 2026-05-04 00:16 | -19.57196 | -44.91698 | 36135 ft | 417 kts | 224° |
| 2026-05-04 00:17 | -19.61694 | -44.95569 | 36130 ft | 416 kts | 224° |
| 2026-05-04 00:17 | -19.66188 | -44.99444 | 36133 ft | 416 kts | 224° |
| 2026-05-04 00:18 | -19.70676 | -45.03327 | 36130 ft | 416 kts | 225° |
| 2026-05-04 00:18 | -19.75159 | -45.07213 | 36151 ft | 416 kts | 225° |
| 2026-05-04 00:19 | -19.79633 | -45.11092 | 36135 ft | 415 kts | 225° |
| 2026-05-04 00:19 | -19.84109 | -45.14968 | 36133 ft | 415 kts | 225° |
| 2026-05-04 00:20 | -19.88584 | -45.18835 | 36141 ft | 415 kts | 225° |
| 2026-05-04 00:20 | -19.93052 | -45.22710 | 36140 ft | 414 kts | 225° |
| 2026-05-04 00:21 | -19.97515 | -45.26586 | 36142 ft | 414 kts | 225° |
| 2026-05-04 00:21 | -20.01976 | -45.30462 | 36148 ft | 414 kts | 225° |
| 2026-05-04 00:22 | -20.06430 | -45.34339 | 36152 ft | 414 kts | 225° |
| 2026-05-04 00:22 | -20.10883 | -45.38209 | 36148 ft | 413 kts | 225° |
| 2026-05-04 00:23 | -20.15328 | -45.42074 | 36160 ft | 412 kts | 225° |
| 2026-05-04 00:23 | -20.19768 | -45.45943 | 36155 ft | 412 kts | 225° |
| 2026-05-04 00:24 | -20.24198 | -45.49809 | 36149 ft | 412 kts | 225° |
| 2026-05-04 00:24 | -20.28624 | -45.53671 | 36155 ft | 411 kts | 225° |
| 2026-05-04 00:25 | -20.33018 | -45.57514 | 36146 ft | 411 kts | 225° |
| 2026-05-04 00:25 | -20.37434 | -45.61378 | 36150 ft | 411 kts | 225° |
| 2026-05-04 00:26 | -20.41850 | -45.65237 | 36162 ft | 410 kts | 225° |
| 2026-05-04 00:26 | -20.46264 | -45.69093 | 36158 ft | 410 kts | 225° |
| 2026-05-04 00:27 | -20.50659 | -45.72953 | 36154 ft | 409 kts | 225° |
| 2026-05-04 00:27 | -20.55051 | -45.76806 | 36160 ft | 409 kts | 225° |
| 2026-05-04 00:28 | -20.59443 | -45.80658 | 36159 ft | 408 kts | 225° |
| 2026-05-04 00:28 | -20.63828 | -45.84512 | 36150 ft | 408 kts | 225° |
| 2026-05-04 00:29 | -20.68209 | -45.88363 | 36157 ft | 408 kts | 225° |
| 2026-05-04 00:29 | -20.72588 | -45.92215 | 36172 ft | 408 kts | 225° |
| 2026-05-04 00:30 | -20.76226 | -45.95415 | 36166 ft | 407 kts | 225° |
| 2026-05-04 00:30 | -20.81306 | -45.99887 | 36170 ft | 407 kts | 225° |
| 2026-05-04 00:31 | -20.85667 | -46.03735 | 36165 ft | 406 kts | 225° |
| 2026-05-04 00:31 | -20.90027 | -46.07584 | 36167 ft | 406 kts | 225° |
| 2026-05-04 00:32 | -20.93680 | -46.10804 | 36163 ft | 406 kts | 225° |
| 2026-05-04 00:32 | -20.98305 | -46.14323 | 36160 ft | 415 kts | 213° |
| 2026-05-04 00:33 | -21.06560 | -46.17466 | 36166 ft | 423 kts | 205° |
| 2026-05-04 00:34 | -21.12153 | -46.19445 | 36180 ft | 423 kts | 206° |
| 2026-05-04 00:34 | -21.17738 | -46.21430 | 36157 ft | 423 kts | 205° |
| 2026-05-04 00:35 | -21.23347 | -46.23358 | 36157 ft | 424 kts | 205° |
| 2026-05-04 00:35 | -21.28972 | -46.25249 | 36161 ft | 424 kts | 205° |
| 2026-05-04 00:36 | -21.34604 | -46.27140 | 35727 ft | 427 kts | 205° |
| 2026-05-04 00:36 | -21.37428 | -46.28096 | 35194 ft | 424 kts | 205° |
| 2026-05-04 00:36 | -21.40236 | -46.29050 | 34679 ft | 422 kts | 205° |
| 2026-05-04 00:36 | -21.43025 | -46.30001 | 34168 ft | 420 kts | 205° |
| 2026-05-04 00:37 | -21.45796 | -46.30949 | 33624 ft | 417 kts | 205° |
| 2026-05-04 00:37 | -21.48554 | -46.31894 | 33125 ft | 413 kts | 205° |
| 2026-05-04 00:37 | -21.51278 | -46.32828 | 32632 ft | 410 kts | 205° |
| 2026-05-04 00:37 | -21.53988 | -46.33757 | 32146 ft | 407 kts | 205° |
| 2026-05-04 00:38 | -21.56676 | -46.34678 | 31659 ft | 404 kts | 205° |
| 2026-05-04 00:38 | -21.59341 | -46.35590 | 31193 ft | 401 kts | 205° |
| 2026-05-04 00:38 | -21.61997 | -46.36495 | 30713 ft | 399 kts | 205° |
| 2026-05-04 00:38 | -21.64631 | -46.37392 | 30254 ft | 396 kts | 205° |
| 2026-05-04 00:39 | -21.67244 | -46.38294 | 29719 ft | 393 kts | 206° |
| 2026-05-04 00:39 | -21.69819 | -46.39217 | 29253 ft | 388 kts | 206° |
| 2026-05-04 00:39 | -21.72358 | -46.40153 | 28792 ft | 384 kts | 206° |
| 2026-05-04 00:39 | -21.74869 | -46.41086 | 28345 ft | 379 kts | 206° |
| 2026-05-04 00:40 | -21.77351 | -46.42009 | 27901 ft | 375 kts | 206° |
| 2026-05-04 00:40 | -21.79772 | -46.42910 | 27464 ft | 372 kts | 206° |
| 2026-05-04 00:40 | -21.82206 | -46.43811 | 27038 ft | 368 kts | 206° |
| 2026-05-04 00:40 | -21.84617 | -46.44700 | 26595 ft | 364 kts | 205° |
| 2026-05-04 00:41 | -21.87005 | -46.45579 | 26172 ft | 362 kts | 206° |
| 2026-05-04 00:41 | -21.89381 | -46.46456 | 25723 ft | 360 kts | 205° |
| 2026-05-04 00:41 | -21.91746 | -46.47328 | 25279 ft | 358 kts | 205° |
| 2026-05-04 00:41 | -21.94101 | -46.48196 | 24821 ft | 358 kts | 205° |
| 2026-05-04 00:42 | -21.96452 | -46.49060 | 24352 ft | 356 kts | 205° |
| 2026-05-04 00:42 | -21.98793 | -46.49920 | 23887 ft | 356 kts | 205° |
| 2026-05-04 00:42 | -22.01138 | -46.50782 | 23361 ft | 356 kts | 205° |
| 2026-05-04 00:42 | -22.03472 | -46.51641 | 22887 ft | 354 kts | 205° |
| 2026-05-04 00:43 | -22.05795 | -46.52499 | 22425 ft | 352 kts | 204° |
| 2026-05-04 00:43 | -22.08107 | -46.53356 | 21965 ft | 351 kts | 204° |
| 2026-05-04 00:43 | -22.10412 | -46.54210 | 21517 ft | 349 kts | 204° |
| 2026-05-04 00:43 | -22.12709 | -46.55059 | 21079 ft | 349 kts | 204° |
| 2026-05-04 00:44 | -22.15002 | -46.55904 | 20623 ft | 348 kts | 204° |
| 2026-05-04 00:44 | -22.17292 | -46.56748 | 20175 ft | 348 kts | 204° |
| 2026-05-04 00:44 | -22.19583 | -46.57591 | 19726 ft | 347 kts | 203° |
| 2026-05-04 00:44 | -22.21865 | -46.58432 | 19282 ft | 347 kts | 203° |
| 2026-05-04 00:45 | -22.24145 | -46.59273 | 18847 ft | 346 kts | 203° |
| 2026-05-04 00:45 | -22.26422 | -46.60114 | 18406 ft | 346 kts | 202° |
| 2026-05-04 00:45 | -22.28696 | -46.60954 | 17934 ft | 345 kts | 202° |
| 2026-05-04 00:45 | -22.30959 | -46.61793 | 17502 ft | 343 kts | 202° |
| 2026-05-04 00:46 | -22.33209 | -46.62626 | 17072 ft | 341 kts | 202° |
| 2026-05-04 00:46 | -22.35454 | -46.63458 | 16665 ft | 340 kts | 202° |
| 2026-05-04 00:46 | -22.37686 | -46.64286 | 16250 ft | 339 kts | 202° |
| 2026-05-04 00:46 | -22.39900 | -46.65149 | 15843 ft | 337 kts | 207° |
| 2026-05-04 00:47 | -22.41879 | -46.66446 | 15435 ft | 331 kts | 222° |
| 2026-05-04 00:47 | -22.43448 | -46.68185 | 15044 ft | 326 kts | 234° |
| 2026-05-04 00:47 | -22.44838 | -46.70164 | 14649 ft | 325 kts | 234° |
| 2026-05-04 00:47 | -22.46193 | -46.72079 | 14261 ft | 325 kts | 234° |
| 2026-05-04 00:48 | -22.47571 | -46.74020 | 13849 ft | 325 kts | 234° |
| 2026-05-04 00:48 | -22.48944 | -46.75953 | 13430 ft | 324 kts | 234° |
| 2026-05-04 00:48 | -22.50309 | -46.77875 | 13042 ft | 322 kts | 234° |
| 2026-05-04 00:48 | -22.51668 | -46.79791 | 12640 ft | 320 kts | 234° |
| 2026-05-04 00:49 | -22.53017 | -46.81698 | 12254 ft | 318 kts | 234° |
| 2026-05-04 00:49 | -22.54358 | -46.83597 | 11853 ft | 317 kts | 234° |
| 2026-05-04 00:49 | -22.55694 | -46.85489 | 11446 ft | 316 kts | 233° |
| 2026-05-04 00:49 | -22.57026 | -46.87370 | 11064 ft | 314 kts | 233° |
| 2026-05-04 00:50 | -22.58348 | -46.89238 | 10752 ft | 310 kts | 233° |
| 2026-05-04 00:50 | -22.59647 | -46.91077 | 10512 ft | 304 kts | 234° |
| 2026-05-04 00:50 | -22.60905 | -46.92866 | 10365 ft | 295 kts | 234° |
| 2026-05-04 00:50 | -22.62139 | -46.94623 | 9913 ft | 291 kts | 233° |
| 2026-05-04 00:51 | -22.63355 | -46.96358 | 9515 ft | 288 kts | 233° |
| 2026-05-04 00:51 | -22.64569 | -46.98085 | 9207 ft | 288 kts | 233° |
| 2026-05-04 00:51 | -22.65784 | -46.99811 | 8985 ft | 288 kts | 233° |
| 2026-05-04 00:51 | -22.66999 | -47.01535 | 8774 ft | 288 kts | 233° |
| 2026-05-04 00:52 | -22.68209 | -47.03254 | 8561 ft | 287 kts | 234° |
| 2026-05-04 00:52 | -22.69418 | -47.04975 | 8302 ft | 288 kts | 234° |
| 2026-05-04 00:52 | -22.70630 | -47.06699 | 7947 ft | 286 kts | 233° |
| 2026-05-04 00:52 | -22.71833 | -47.08411 | 7718 ft | 285 kts | 234° |
| 2026-05-04 00:53 | -22.73035 | -47.10126 | 7504 ft | 286 kts | 233° |
| 2026-05-04 00:53 | -22.74234 | -47.11837 | 7293 ft | 285 kts | 234° |
| 2026-05-04 00:53 | -22.75436 | -47.13551 | 7078 ft | 285 kts | 234° |
| 2026-05-04 00:53 | -22.76634 | -47.15260 | 6867 ft | 284 kts | 234° |
| 2026-05-04 00:54 | -22.77830 | -47.16966 | 6653 ft | 284 kts | 233° |
| 2026-05-04 00:54 | -22.79006 | -47.18644 | 6438 ft | 283 kts | 233° |
| 2026-05-04 00:54 | -22.80183 | -47.20323 | 6224 ft | 275 kts | 234° |
| 2026-05-04 00:54 | -22.81344 | -47.21926 | 6020 ft | 266 kts | 227° |
| 2026-05-04 00:55 | -22.82697 | -47.23194 | 5809 ft | 251 kts | 217° |
| 2026-05-04 00:55 | -22.84069 | -47.24332 | 5596 ft | 246 kts | 217° |
| 2026-05-04 00:55 | -22.85418 | -47.25457 | 5380 ft | 243 kts | 216° |
| 2026-05-04 00:55 | -22.86835 | -47.26395 | 5178 ft | 232 kts | 200° |
| 2026-05-04 00:56 | -22.88342 | -47.26780 | 5079 ft | 217 kts | 182° |
| 2026-05-04 00:56 | -22.89791 | -47.26674 | 4961 ft | 198 kts | 166° |
| 2026-05-04 00:56 | -22.91009 | -47.26204 | 4781 ft | 175 kts | 150° |
| 2026-05-04 00:56 | -22.91974 | -47.25505 | 4593 ft | 161 kts | 137° |
| 2026-05-04 00:57 | -22.92710 | -47.24650 | 4403 ft | 152 kts | 126° |
| 2026-05-04 00:57 | -22.93349 | -47.23761 | 4219 ft | 146 kts | 127° |
| 2026-05-04 00:57 | -22.93965 | -47.22903 | 4032 ft | 144 kts | 127° |
| 2026-05-04 00:57 | -22.94571 | -47.22059 | 3846 ft | 141 kts | 127° |
| 2026-05-04 00:58 | -22.95161 | -47.21237 | 3683 ft | 136 kts | 127° |
| 2026-05-04 00:58 | -22.95559 | -47.20682 | 3555 ft | 134 kts | 126° |
| 2026-05-04 00:58 | -22.96131 | -47.19884 | 3388 ft | 134 kts | 126° |
| 2026-05-04 00:58 | -22.96703 | -47.19087 | 3197 ft | 134 kts | 126° |
| 2026-05-04 00:59 | -22.97105 | -47.18529 | 3066 ft | 134 kts | 127° |
| 2026-05-04 00:59 | -22.97677 | -47.17735 | 2892 ft | 135 kts | 127° |
| 2026-05-04 00:59 | -22.98248 | -47.16930 | 2693 ft | 134 kts | 127° |
| 2026-05-04 00:59 | -22.98814 | -47.16135 | 2517 ft | 133 kts | 128° |
| 2026-05-04 01:00 | -22.99383 | -47.15343 | 2341 ft | 133 kts | 128° |
| 2026-05-04 01:00 | -22.99948 | -47.14558 | 2183 ft | 133 kts | 128° |
| 2026-05-04 01:00 | -23.00506 | -47.13781 | 2219 ft | 144 kts | 128° |
| 2026-05-04 01:00 | -23.01206 | -47.12805 | 2550 ft | 180 kts | 128° |
| 2026-05-04 01:01 | -23.01975 | -47.11747 | 3578 ft | 178 kts | 128° |
| 2026-05-04 01:01 | -23.02829 | -47.10692 | 3906 ft | 199 kts | 139° |
| 2026-05-04 01:01 | -23.04200 | -47.10165 | 4335 ft | 224 kts | 179° |
| 2026-05-04 01:01 | -23.05694 | -47.10781 | 4998 ft | 242 kts | 220° |
| 2026-05-04 01:02 | -23.06580 | -47.12360 | 5643 ft | 254 kts | 259° |
| 2026-05-04 01:02 | -23.06479 | -47.14257 | 6282 ft | 253 kts | 287° |
| 2026-05-04 01:02 | -23.05840 | -47.16002 | 6460 ft | 246 kts | 297° |
| 2026-05-04 01:02 | -23.05040 | -47.17638 | 6504 ft | 245 kts | 300° |
| 2026-05-04 01:03 | -23.04231 | -47.19257 | 6509 ft | 243 kts | 298° |
| 2026-05-04 01:03 | -23.03463 | -47.20887 | 6510 ft | 242 kts | 297° |
| 2026-05-04 01:03 | -23.02733 | -47.22538 | 6510 ft | 242 kts | 296° |
| 2026-05-04 01:03 | -23.02034 | -47.24199 | 6511 ft | 242 kts | 295° |
| 2026-05-04 01:04 | -23.01355 | -47.25875 | 6509 ft | 242 kts | 294° |
| 2026-05-04 01:04 | -23.00691 | -47.27555 | 6509 ft | 242 kts | 294° |
| 2026-05-04 01:04 | -23.00032 | -47.29228 | 6508 ft | 241 kts | 296° |
| 2026-05-04 01:04 | -22.99068 | -47.30685 | 6506 ft | 238 kts | 321° |
| 2026-05-04 01:05 | -22.97624 | -47.31530 | 6507 ft | 239 kts | 347° |
| 2026-05-04 01:05 | -22.95978 | -47.31575 | 6507 ft | 239 kts | 13° |
| 2026-05-04 01:05 | -22.94413 | -47.30988 | 6314 ft | 238 kts | 20° |
| 2026-05-04 01:05 | -22.92891 | -47.30300 | 5961 ft | 237 kts | 32° |
| 2026-05-04 01:06 | -22.91761 | -47.29034 | 5573 ft | 238 kts | 64° |
| 2026-05-04 01:06 | -22.91428 | -47.27286 | 5112 ft | 241 kts | 98° |
| 2026-05-04 01:06 | -22.91998 | -47.25635 | 4679 ft | 237 kts | 126° |
| 2026-05-04 01:06 | -22.92982 | -47.24262 | 4338 ft | 226 kts | 128° |
| 2026-05-04 01:07 | -22.93931 | -47.22951 | 4045 ft | 216 kts | 127° |
| 2026-05-04 01:07 | -22.94835 | -47.21693 | 3777 ft | 206 kts | 127° |
| 2026-05-04 01:07 | -22.95695 | -47.20494 | 3504 ft | 196 kts | 127° |
| 2026-05-04 01:07 | -22.96521 | -47.19343 | 3252 ft | 190 kts | 127° |
| 2026-05-04 01:08 | -22.97312 | -47.18240 | 3012 ft | 177 kts | 128° |
| 2026-05-04 01:08 | -22.98020 | -47.17252 | 2794 ft | 154 kts | 126° |
| 2026-05-04 01:08 | -22.98636 | -47.16393 | 2588 ft | 138 kts | 126° |
| 2026-05-04 01:08 | -22.99209 | -47.15592 | 2403 ft | 132 kts | 127° |
| 2026-05-04 01:09 | -22.99784 | -47.14784 | 2217 ft | 137 kts | 128° |
| 2026-05-04 01:09 | -23.00322 | -47.14036 | 2156 ft | 108 kts | 128° |
| 2026-05-04 01:09 | -23.00685 | -47.13533 | 2153 ft | 65 kts | 127° |
| 2026-05-04 01:09 | -23.00899 | -47.13231 | 2153 ft | 40 kts | 128° |
| 2026-05-04 01:10 | -23.01034 | -47.13045 | 2153 ft | 27 kts | 128° |
| 2026-05-04 01:10 | -23.01150 | -47.12900 | 2156 ft | 24 kts | 142° |
| 2026-05-04 01:10 | -23.01291 | -47.12819 | 2156 ft | 23 kts | 155° |
| 2026-05-04 01:10 | -23.01374 | -47.12874 | 2157 ft | 18 kts | 288° |